Skip to main content.

Nearby METAR Reports

 

KJYR - York, Nebraska, USA
Distance from station: NW 27mi, 43km
Updated: Sat, 26-Sep-2020 9:35pm CDT
Mostly Cloudy
Mostly Cloudy
 Wind from N
Wind: N 14 mph , 22 km/h, Gust: 24 mph , 39 km/h
Temperature: 72°F , 22°C
Dew Point: 48°F , 9°C
Humidity: 44%
Barometer: 29.75 inHg , 1007.5 hPa
Clouds: Mostly Cloudy
Visibility: 10 miles , 16 km
Cloud details: Few Clouds 6500 ft
Few Clouds 7500 ft
Mostly Cloudy 12000 ft
2020/09/27 02:35 KJYR 270235Z AUTO 35012G21KT 10SM FEW065 FEW075 BKN120 22/09 A2975 RMK AO2
KLNK - Lincoln, Nebraska, USA
Distance from station: ENE 27mi, 44km
Updated: Sat, 26-Sep-2020 8:54pm CDT
Clear
Clear
 Wind from NNW
Wind: NNW 14 mph , 22 km/h
Temperature: 79°F , 26°C
Dew Point: 46°F , 8°C
Humidity: 32%
Barometer: 29.70 inHg , 1005.8 hPa
Clouds: Clear
Visibility: 10 miles , 16 km
2020/09/27 01:54 KLNK 270154Z 34012KT 10SM CLR 26/08 A2970 RMK AO2 SLP045 T02610078
 
KBIE - Beatrice Municip, Nebraska, USA
Distance from station: SE 36mi, 58km
Updated: Sat, 26-Sep-2020 9:35pm CDT
Clear
Clear
 Wind from NE
Wind: NE 8 mph , 13 km/h, Gust: 17 mph , 28 km/h
Temperature: 81°F , 27°C
Dew Point: 48°F , 9°C
Humidity: 32%
Barometer: 29.71 inHg , 1006.1 hPa
Clouds: Clear
Visibility: 10 miles , 16 km
2020/09/27 02:35 KBIE 270235Z AUTO 04007G15KT 10SM CLR 27/09 A2971 RMK AO2 T02660093
KHJH - Hebron Muni, Nebraska, USA
Distance from station: SSW 40mi, 64km
Updated: Sat, 26-Sep-2020 9:35pm CDT
Clear
Clear
 Wind from E
Wind: E 7 mph , 11 km/h
Temperature: 77°F , 25°C
Dew Point: 46°F , 8°C
Humidity: 34%
Barometer: 29.72 inHg , 1006.4 hPa
Clouds: Clear
Visibility: 10 miles , 16 km
2020/09/27 02:35 KHJH 270235Z AUTO 10006KT 10SM CLR 25/08 A2972 RMK AO2 T02460076
 
KAUH - Aurora, Nebraska, USA
Distance from station: WNW 44mi, 70km
Updated: Sat, 26-Sep-2020 9:35pm CDT
Clear
Clear
 Wind from N
Wind: N 17 mph , 28 km/h, Gust: 26 mph , 43 km/h
Temperature: 72°F , 22°C
Dew Point: 46°F , 8°C
Humidity: 41%
Barometer: 29.77 inHg , 1008.1 hPa
Clouds: Clear
Visibility: 10 miles , 16 km
2020/09/27 02:35 KAUH 270235Z AUTO 36015G23KT 10SM CLR 22/08 A2977 RMK AO2 T02190083
KAHQ - Wahoo, Nebraska, USA
Distance from station: NE 51mi, 82km
Updated: Sat, 26-Sep-2020 9:35pm CDT
Clear
Clear
 Wind from NNW
Wind: NNW 14 mph , 22 km/h, Gust: 22 mph , 35 km/h
Temperature: 75°F , 24°C
Dew Point: 46°F , 8°C
Humidity: 36%
Barometer: 29.70 inHg , 1005.8 hPa
Clouds: Clear
Visibility: 10 miles , 16 km
2020/09/27 02:35 KAHQ 270235Z AUTO 34012G19KT 10SM CLR 24/08 A2970 RMK AO2 T02440084
 
KOLU - Columbus Muni, Nebraska, USA
Distance from station: N 55mi, 88km
Updated: Sat, 26-Sep-2020 8:56pm CDT
Clear
Clear
 Wind from NNW
Wind: NNW 14 mph , 22 km/h
Temperature: 72°F , 22°C
Dew Point: 46°F , 8°C
Humidity: 41%
Barometer: 29.75 inHg , 1007.5 hPa
Clouds: Clear
Visibility: 10 miles , 16 km
2020/09/27 01:56 KOLU 270156Z AUTO 34012KT 10SM CLR 22/08 A2975 RMK AO2 SLP068 T02170083
KGRI - Grand Island, Nebraska, USA
Distance from station: WNW 61mi, 99km
Updated: Sat, 26-Sep-2020 8:53pm CDT
Clear
Clear
 Wind from N
Wind: N 17 mph , 28 km/h, Gust: 25 mph , 41 km/h
Temperature: 73°F , 23°C
Dew Point: 45°F , 7°C
Humidity: 36%
Barometer: 29.78 inHg , 1008.5 hPa
Clouds: Clear
Visibility: 10 miles , 16 km
2020/09/27 01:53 KGRI 270153Z AUTO 36015G22KT 10SM CLR 23/07 A2978 RMK AO2 SLP075 T02280072
 
KHSI - Hastings, Nebraska, USA
Distance from station: W 64mi, 103km
Updated: Sat, 26-Sep-2020 8:53pm CDT
Few Clouds
Few Clouds
 Wind from NNE
Wind: NNE 10 mph , 17 km/h
Temperature: 73°F , 23°C
Dew Point: 46°F , 8°C
Humidity: 38%
Barometer: 29.75 inHg , 1007.5 hPa
Clouds: Few Clouds
Visibility: 10 miles , 16 km
Cloud details: Few Clouds 12000 ft
2020/09/27 01:53 KHSI 270153Z AUTO 02009KT 10SM FEW120 23/08 A2975 RMK AO2 SLP060 T02330078
KFET - Fremont Muni Arp, Nebraska, USA
Distance from station: NNE 66mi, 106km
Updated: Sat, 26-Sep-2020 9:35pm CDT
Clear
Clear
 Wind from NW
Wind: NW 13 mph , 20 km/h, Gust: 17 mph , 28 km/h
Temperature: 73°F , 23°C
Dew Point: 50°F , 10°C
Humidity: 44%
Barometer: 29.74 inHg , 1007.1 hPa
Clouds: Clear
Visibility: 10 miles , 16 km
2020/09/27 02:35 KFET 270235Z AUTO 31011G15KT 10SM CLR 23/10 A2974 RMK AO2 T02330095
 
KMLE - Omaha/Millard, Nebraska, USA
Distance from station: NE 69mi, 110km
Updated: Sat, 26-Sep-2020 9:35pm CDT
Clear
Clear
 Wind from NW
Wind: NW 10 mph , 17 km/h, Gust: 16 mph , 26 km/h
Temperature: 81°F , 27°C
Dew Point: 48°F , 9°C
Humidity: 32%
Barometer: 29.69 inHg , 1005.4 hPa
Clouds: Clear
Visibility: 10 miles , 16 km
2020/09/27 02:35 KMLE 270235Z AUTO 32009G14KT 10SM CLR 27/09 A2969 RMK AO2 T02650089
KPMV - Plattsmouth Muni, Nebraska, USA
Distance from station: ENE 71mi, 114km
Updated: Sat, 26-Sep-2020 9:35pm CDT
Clear
Clear
 Wind from NW
Wind: NW 9 mph , 15 km/h
Temperature: 77°F , 25°C
Dew Point: 48°F , 9°C
Humidity: 36%
Barometer: 29.69 inHg , 1005.4 hPa
Clouds: Clear
Visibility: 10 miles , 16 km
2020/09/27 02:35 KPMV 270235Z AUTO 32008KT 10SM CLR 25/09 A2969 RMK AO2 T02530093
 
KAFK - Nebraska City, Nebraska, USA
Distance from station: E 72mi, 116km
Updated: Sat, 26-Sep-2020 9:35pm CDT
Clear
Clear
 Wind from N
Wind: N 6 mph , 9 km/h
Temperature: 81°F , 27°C
Dew Point: 50°F , 10°C
Humidity: 34%
Barometer: 29.70 inHg , 1005.8 hPa
Clouds: Clear
Visibility: 10 miles , 16 km
2020/09/27 02:35 KAFK 270235Z AUTO 35005KT 10SM CLR 27/10 A2970 RMK AO2 T02690099
KOFF - Offutt Afb/Belle, Nebraska, USA
Distance from station: ENE 75mi, 121km
Updated: Sat, 26-Sep-2020 8:56pm CDT
Clear
Clear
 Wind from NNW
Wind: NNW 12 mph , 19 km/h, Gust: 20 mph , 31 km/h
Temperature: 81°F , 27°C
Dew Point: 48°F , 9°C
Humidity: 32%
Barometer: 29.67 inHg , 1004.7 hPa
Clouds: Clear
Visibility: 10 miles , 16 km
2020/09/27 01:56 KOFF 270156Z AUTO 33010G17KT 10SM CLR 27/09 A2967 RMK AO2 SLP044 T02680087 $
 
KBTA - Blair Muni, Nebraska, USA
Distance from station: NE 78mi, 125km
Updated: Sat, 26-Sep-2020 9:35pm CDT
Clear
Clear
 Wind from NW
Wind: NW 12 mph , 19 km/h
Temperature: 75°F , 24°C
Dew Point: 5°F , -15°C
Humidity: 6%
Barometer: 29.71 inHg , 1006.1 hPa
Clouds: Clear
Visibility: 10 miles , 16 km
2020/09/27 02:35 KBTA 270235Z AUTO 32010KT 10SM CLR 24/M15 A2971 RMK AO2 T02421150
KCNK - Concordia, Kansas, USA
Distance from station: SSW 80mi, 129km
Updated: Sat, 26-Sep-2020 8:55pm CDT
Clear
Clear
 Wind from S
Wind: S 12 mph , 19 km/h
Temperature: 82°F , 28°C
Heat Index: 82°F , 28°C
Dew Point: 57°F , 14°C
Humidity: 42%
Barometer: 29.66 inHg , 1004.4 hPa
Clouds: Clear
Visibility: 10 miles , 16 km
2020/09/27 01:55 KCNK 270155Z AUTO 19010KT 10SM CLR 28/14 A2966 RMK AO2 SLP028 T02830139
 
KOMA - Omaha/Eppley, Nebraska, USA
Distance from station: NE 82mi, 133km
Updated: Sat, 26-Sep-2020 8:52pm CDT
Mostly Cloudy
Mostly Cloudy
 Wind from NNW
Wind: NNW 12 mph , 19 km/h
Temperature: 77°F , 25°C
Dew Point: 48°F , 9°C
Humidity: 36%
Barometer: 29.67 inHg , 1004.7 hPa
Clouds: Mostly Cloudy
Visibility: 10 miles , 16 km
Cloud details: Partly Cloudy 15000 ft
Mostly Cloudy 22000 ft
2020/09/27 01:52 KOMA 270152Z 33010KT 10SM SCT150 BKN220 25/09 A2967 RMK AO2 SLP040 T02500094 $
KBVN - Albion Muni, Nebraska, USA
Distance from station: NNW 86mi, 138km
Updated: Sat, 26-Sep-2020 9:35pm CDT
Clear
Clear
 Wind from calm
Wind: Calm
Temperature: 64°F , 18°C
Dew Point: 45°F , 7°C
Humidity: 49%
Barometer: 29.78 inHg , 1008.5 hPa
Clouds: Clear
Visibility: 10 miles , 16 km
2020/09/27 02:35 KBVN 270235Z AUTO 00000KT 10SM CLR 18/07 A2978 RMK AO2 T01780072
 
KCBF - Council Bluffs, Iowa, USA
Distance from station: ENE 87mi, 139km
Updated: Sat, 26-Sep-2020 9:35pm CDT
Clear
Clear
 Wind from NNW
Wind: NNW 9 mph , 15 km/h, Gust: 15 mph , 24 km/h
Temperature: 75°F , 24°C
Dew Point: 46°F , 8°C
Humidity: 36%
Barometer: 29.69 inHg , 1005.4 hPa
Clouds: Clear
Visibility: 10 miles , 16 km
2020/09/27 02:35 KCBF 270235Z AUTO 34008G13KT 10SM CLR 24/08 A2969 RMK AO2
KOFK - Norfolk, Nebraska, USA
Distance from station: N 92mi, 148km
Updated: Sat, 26-Sep-2020 8:56pm CDT
Clear
Clear
 Wind from NW
Wind: NW 9 mph , 15 km/h
Temperature: 68°F , 20°C
Dew Point: 45°F , 7°C
Humidity: 43%
Barometer: 29.75 inHg , 1007.5 hPa
Clouds: Clear
Visibility: 10 miles , 16 km
2020/09/27 01:56 KOFK 270156Z AUTO 32008KT 10SM CLR 20/07 A2975 RMK AO2 SLP069 T02000072

Metar display script from Saratoga-Weather.org